sensor_id;sensor_type;location;lat;lon;timestamp;P1;durP1;ratioP1;P2;durP2;ratioP2
44824;SDS011;30542;47.928;2.138;2023-04-06T00:01:54;0.73;;;0.30;;
44824;SDS011;30542;47.928;2.138;2023-04-06T00:06:55;0.77;;;0.50;;
44824;SDS011;30542;47.928;2.138;2023-04-06T00:11:56;0.70;;;0.40;;
44824;SDS011;30542;47.928;2.138;2023-04-06T00:16:57;0.98;;;0.40;;
44824;SDS011;30542;47.928;2.138;2023-04-06T00:21:58;0.50;;;0.40;;
44824;SDS011;30542;47.928;2.138;2023-04-06T00:26:58;0.93;;;0.33;;
44824;SDS011;30542;47.928;2.138;2023-04-06T00:31:58;0.47;;;0.37;;
44824;SDS011;30542;47.928;2.138;2023-04-06T00:36:59;0.50;;;0.30;;
44824;SDS011;30542;47.928;2.138;2023-04-06T00:41:59;1.05;;;0.50;;
44824;SDS011;30542;47.928;2.138;2023-04-06T00:47:07;0.95;;;0.40;;
44824;SDS011;30542;47.928;2.138;2023-04-06T00:52:08;0.60;;;0.50;;
44824;SDS011;30542;47.928;2.138;2023-04-06T00:57:09;0.70;;;0.40;;
44824;SDS011;30542;47.928;2.138;2023-04-06T01:02:11;0.40;;;0.40;;
44824;SDS011;30542;47.928;2.138;2023-04-06T01:07:12;0.57;;;0.40;;
44824;SDS011;30542;47.928;2.138;2023-04-06T01:12:12;0.90;;;0.30;;
44824;SDS011;30542;47.928;2.138;2023-04-06T01:17:12;0.40;;;0.30;;
44824;SDS011;30542;47.928;2.138;2023-04-06T01:22:15;0.80;;;0.37;;
44824;SDS011;30542;47.928;2.138;2023-04-06T01:27:16;0.57;;;0.43;;
44824;SDS011;30542;47.928;2.138;2023-04-06T01:32:17;0.87;;;0.50;;
44824;SDS011;30542;47.928;2.138;2023-04-06T01:37:17;0.70;;;0.43;;
44824;SDS011;30542;47.928;2.138;2023-04-06T01:42:18;0.77;;;0.57;;
44824;SDS011;30542;47.928;2.138;2023-04-06T01:47:18;0.40;;;0.33;;
44824;SDS011;30542;47.928;2.138;2023-04-06T01:52:18;0.50;;;0.33;;
44824;SDS011;30542;47.928;2.138;2023-04-06T01:57:19;0.43;;;0.30;;
44824;SDS011;30542;47.928;2.138;2023-04-06T02:02:20;0.40;;;0.40;;
44824;SDS011;30542;47.928;2.138;2023-04-06T02:07:20;0.63;;;0.37;;
44824;SDS011;30542;47.928;2.138;2023-04-06T02:12:20;0.60;;;0.50;;
44824;SDS011;30542;47.928;2.138;2023-04-06T02:17:21;1.15;;;0.50;;
44824;SDS011;30542;47.928;2.138;2023-04-06T02:22:21;0.90;;;0.60;;
44824;SDS011;30542;47.928;2.138;2023-04-06T02:27:22;0.77;;;0.50;;
44824;SDS011;30542;47.928;2.138;2023-04-06T02:32:23;0.55;;;0.32;;
44824;SDS011;30542;47.928;2.138;2023-04-06T02:37:23;0.70;;;0.40;;
44824;SDS011;30542;47.928;2.138;2023-04-06T02:42:24;0.77;;;0.50;;
44824;SDS011;30542;47.928;2.138;2023-04-06T02:47:24;0.57;;;0.35;;
44824;SDS011;30542;47.928;2.138;2023-04-06T02:52:25;0.50;;;0.45;;
44824;SDS011;30542;47.928;2.138;2023-04-06T02:57:26;0.52;;;0.50;;
44824;SDS011;30542;47.928;2.138;2023-04-06T03:02:26;0.70;;;0.67;;
44824;SDS011;30542;47.928;2.138;2023-04-06T03:07:26;0.70;;;0.50;;
44824;SDS011;30542;47.928;2.138;2023-04-06T03:12:27;1.13;;;0.60;;
44824;SDS011;30542;47.928;2.138;2023-04-06T03:17:27;0.90;;;0.50;;
44824;SDS011;30542;47.928;2.138;2023-04-06T03:22:28;0.73;;;0.50;;
44824;SDS011;30542;47.928;2.138;2023-04-06T03:27:29;1.52;;;0.60;;
44824;SDS011;30542;47.928;2.138;2023-04-06T03:32:29;0.77;;;0.75;;
44824;SDS011;30542;47.928;2.138;2023-04-06T03:37:30;0.60;;;0.57;;
44824;SDS011;30542;47.928;2.138;2023-04-06T03:42:30;0.60;;;0.50;;
44824;SDS011;30542;47.928;2.138;2023-04-06T03:47:32;1.33;;;0.70;;
44824;SDS011;30542;47.928;2.138;2023-04-06T03:52:32;0.93;;;0.60;;
44824;SDS011;30542;47.928;2.138;2023-04-06T03:57:33;0.40;;;0.40;;
44824;SDS011;30542;47.928;2.138;2023-04-06T04:02:33;0.70;;;0.40;;
44824;SDS011;30542;47.928;2.138;2023-04-06T04:07:33;1.30;;;0.57;;
44824;SDS011;30542;47.928;2.138;2023-04-06T04:12:34;1.07;;;0.57;;
44824;SDS011;30542;47.928;2.138;2023-04-06T04:17:35;1.70;;;0.75;;
44824;SDS011;30542;47.928;2.138;2023-04-06T04:22:35;0.82;;;0.70;;
44824;SDS011;30542;47.928;2.138;2023-04-06T04:27:35;0.60;;;0.40;;
44824;SDS011;30542;47.928;2.138;2023-04-06T04:32:36;0.80;;;0.80;;
44824;SDS011;30542;47.928;2.138;2023-04-06T04:37:36;1.00;;;0.60;;
44824;SDS011;30542;47.928;2.138;2023-04-06T04:42:36;0.67;;;0.40;;
44824;SDS011;30542;47.928;2.138;2023-04-06T04:47:37;0.50;;;0.50;;
44824;SDS011;30542;47.928;2.138;2023-04-06T04:52:37;0.60;;;0.50;;
44824;SDS011;30542;47.928;2.138;2023-04-06T04:57:38;1.33;;;0.63;;
44824;SDS011;30542;47.928;2.138;2023-04-06T05:02:38;0.80;;;0.53;;
44824;SDS011;30542;47.928;2.138;2023-04-06T05:07:39;0.50;;;0.40;;
44824;SDS011;30542;47.928;2.138;2023-04-06T05:12:39;0.70;;;0.50;;
44824;SDS011;30542;47.928;2.138;2023-04-06T05:17:40;1.40;;;0.43;;
44824;SDS011;30542;47.928;2.138;2023-04-06T05:22:40;2.40;;;0.50;;
44824;SDS011;30542;47.928;2.138;2023-04-06T05:27:41;1.00;;;0.73;;
44824;SDS011;30542;47.928;2.138;2023-04-06T05:32:41;0.93;;;0.50;;
44824;SDS011;30542;47.928;2.138;2023-04-06T05:37:43;1.13;;;0.65;;
44824;SDS011;30542;47.928;2.138;2023-04-06T05:42:43;1.38;;;0.52;;
44824;SDS011;30542;47.928;2.138;2023-04-06T05:47:44;2.33;;;0.80;;
44824;SDS011;30542;47.928;2.138;2023-04-06T05:52:45;2.45;;;0.60;;
44824;SDS011;30542;47.928;2.138;2023-04-06T05:57:46;1.45;;;0.90;;
44824;SDS011;30542;47.928;2.138;2023-04-06T06:02:46;2.50;;;0.80;;
44824;SDS011;30542;47.928;2.138;2023-04-06T06:07:47;2.23;;;0.90;;
44824;SDS011;30542;47.928;2.138;2023-04-06T06:12:47;1.57;;;0.80;;
44824;SDS011;30542;47.928;2.138;2023-04-06T06:17:48;0.98;;;0.80;;
44824;SDS011;30542;47.928;2.138;2023-04-06T06:22:48;14.33;;;3.70;;
44824;SDS011;30542;47.928;2.138;2023-04-06T06:27:48;18.73;;;4.93;;
44824;SDS011;30542;47.928;2.138;2023-04-06T06:32:50;16.37;;;4.40;;
44824;SDS011;30542;47.928;2.138;2023-04-06T06:37:50;13.05;;;4.55;;
44824;SDS011;30542;47.928;2.138;2023-04-06T06:42:50;9.03;;;3.43;;
44824;SDS011;30542;47.928;2.138;2023-04-06T06:47:51;7.07;;;3.20;;
44824;SDS011;30542;47.928;2.138;2023-04-06T06:52:51;6.63;;;2.60;;
44824;SDS011;30542;47.928;2.138;2023-04-06T06:57:52;9.88;;;2.90;;
44824;SDS011;30542;47.928;2.138;2023-04-06T07:02:53;4.70;;;2.35;;
44824;SDS011;30542;47.928;2.138;2023-04-06T07:07:53;8.17;;;2.63;;
44824;SDS011;30542;47.928;2.138;2023-04-06T07:12:54;5.05;;;2.50;;
44824;SDS011;30542;47.928;2.138;2023-04-06T07:17:54;7.73;;;2.83;;
44824;SDS011;30542;47.928;2.138;2023-04-06T07:22:55;5.57;;;2.23;;
44824;SDS011;30542;47.928;2.138;2023-04-06T07:27:55;7.20;;;3.37;;
44824;SDS011;30542;47.928;2.138;2023-04-06T07:32:56;6.22;;;2.35;;
44824;SDS011;30542;47.928;2.138;2023-04-06T07:37:57;4.28;;;2.08;;
44824;SDS011;30542;47.928;2.138;2023-04-06T07:42:57;3.45;;;1.77;;
44824;SDS011;30542;47.928;2.138;2023-04-06T07:47:58;6.27;;;3.20;;
44824;SDS011;30542;47.928;2.138;2023-04-06T07:52:58;12.05;;;4.30;;
44824;SDS011;30542;47.928;2.138;2023-04-06T07:57:59;10.55;;;4.93;;
44824;SDS011;30542;47.928;2.138;2023-04-06T08:03:00;10.60;;;5.10;;
44824;SDS011;30542;47.928;2.138;2023-04-06T08:08:00;23.27;;;8.00;;
44824;SDS011;30542;47.928;2.138;2023-04-06T08:13:00;42.33;;;17.30;;
44824;SDS011;30542;47.928;2.138;2023-04-06T08:18:01;47.97;;;14.50;;
44824;SDS011;30542;47.928;2.138;2023-04-06T08:23:01;35.63;;;12.70;;
44824;SDS011;30542;47.928;2.138;2023-04-06T08:28:02;26.37;;;10.13;;
44824;SDS011;30542;47.928;2.138;2023-04-06T08:33:03;28.60;;;10.07;;
44824;SDS011;30542;47.928;2.138;2023-04-06T08:38:03;24.67;;;8.57;;
44824;SDS011;30542;47.928;2.138;2023-04-06T08:43:06;19.13;;;7.65;;
44824;SDS011;30542;47.928;2.138;2023-04-06T08:48:09;18.75;;;7.65;;
44824;SDS011;30542;47.928;2.138;2023-04-06T08:53:12;17.35;;;7.07;;
44824;SDS011;30542;47.928;2.138;2023-04-06T08:58:12;16.98;;;6.32;;
44824;SDS011;30542;47.928;2.138;2023-04-06T09:03:13;13.85;;;5.93;;
44824;SDS011;30542;47.928;2.138;2023-04-06T09:08:15;13.90;;;6.15;;
44824;SDS011;30542;47.928;2.138;2023-04-06T09:13:16;11.93;;;5.87;;
44824;SDS011;30542;47.928;2.138;2023-04-06T09:18:27;12.97;;;5.07;;
44824;SDS011;30542;47.928;2.138;2023-04-06T09:23:31;11.07;;;5.03;;
44824;SDS011;30542;47.928;2.138;2023-04-06T09:28:41;10.30;;;5.18;;
44824;SDS011;30542;47.928;2.138;2023-04-06T09:33:56;7.43;;;4.85;;
44824;SDS011;30542;47.928;2.138;2023-04-06T09:39:01;10.68;;;4.88;;
44824;SDS011;30542;47.928;2.138;2023-04-06T09:44:09;6.45;;;4.18;;
44824;SDS011;30542;47.928;2.138;2023-04-06T09:49:11;8.57;;;4.50;;
44824;SDS011;30542;47.928;2.138;2023-04-06T09:54:12;7.53;;;4.10;;
44824;SDS011;30542;47.928;2.138;2023-04-06T09:59:20;7.50;;;3.58;;
44824;SDS011;30542;47.928;2.138;2023-04-06T10:04:30;6.63;;;3.25;;
44824;SDS011;30542;47.928;2.138;2023-04-06T10:09:38;5.50;;;3.50;;
44824;SDS011;30542;47.928;2.138;2023-04-06T10:14:38;5.88;;;3.38;;
44824;SDS011;30542;47.928;2.138;2023-04-06T10:19:49;5.43;;;2.80;;
44824;SDS011;30542;47.928;2.138;2023-04-06T10:24:58;4.73;;;2.90;;
44824;SDS011;30542;47.928;2.138;2023-04-06T10:30:05;4.10;;;3.13;;
44824;SDS011;30542;47.928;2.138;2023-04-06T10:35:10;4.85;;;2.50;;
44824;SDS011;30542;47.928;2.138;2023-04-06T10:40:19;4.72;;;2.22;;
44824;SDS011;30542;47.928;2.138;2023-04-06T10:45:25;6.20;;;2.10;;
44824;SDS011;30542;47.928;2.138;2023-04-06T10:50:26;3.45;;;2.20;;
44824;SDS011;30542;47.928;2.138;2023-04-06T10:55:29;3.67;;;2.25;;
44824;SDS011;30542;47.928;2.138;2023-04-06T11:00:31;4.05;;;1.75;;
44824;SDS011;30542;47.928;2.138;2023-04-06T11:05:31;3.63;;;2.00;;
44824;SDS011;30542;47.928;2.138;2023-04-06T11:10:32;2.28;;;1.80;;
44824;SDS011;30542;47.928;2.138;2023-04-06T11:15:35;3.90;;;1.90;;
44824;SDS011;30542;47.928;2.138;2023-04-06T11:20:35;3.72;;;1.77;;
44824;SDS011;30542;47.928;2.138;2023-04-06T11:25:36;2.35;;;1.77;;
44824;SDS011;30542;47.928;2.138;2023-04-06T11:30:36;3.37;;;1.40;;
44824;SDS011;30542;47.928;2.138;2023-04-06T11:35:37;1.75;;;1.38;;
44824;SDS011;30542;47.928;2.138;2023-04-06T11:40:37;2.17;;;1.37;;
44824;SDS011;30542;47.928;2.138;2023-04-06T11:45:41;3.53;;;1.73;;
44824;SDS011;30542;47.928;2.138;2023-04-06T11:50:43;3.58;;;1.85;;
44824;SDS011;30542;47.928;2.138;2023-04-06T11:55:47;4.75;;;1.88;;
44824;SDS011;30542;47.928;2.138;2023-04-06T12:00:47;4.37;;;1.67;;
44824;SDS011;30542;47.928;2.138;2023-04-06T12:05:48;3.88;;;1.60;;
44824;SDS011;30542;47.928;2.138;2023-04-06T12:10:49;7.07;;;1.45;;
44824;SDS011;30542;47.928;2.138;2023-04-06T12:15:49;2.97;;;1.63;;
44824;SDS011;30542;47.928;2.138;2023-04-06T12:20:51;4.18;;;1.23;;
44824;SDS011;30542;47.928;2.138;2023-04-06T12:25:52;3.47;;;1.13;;
44824;SDS011;30542;47.928;2.138;2023-04-06T12:30:52;1.75;;;1.00;;
44824;SDS011;30542;47.928;2.138;2023-04-06T12:35:55;4.07;;;1.10;;
44824;SDS011;30542;47.928;2.138;2023-04-06T12:40:56;2.35;;;1.20;;
44824;SDS011;30542;47.928;2.138;2023-04-06T12:45:56;2.80;;;0.95;;
44824;SDS011;30542;47.928;2.138;2023-04-06T12:50:57;2.60;;;1.02;;
44824;SDS011;30542;47.928;2.138;2023-04-06T12:55:59;2.45;;;0.90;;
44824;SDS011;30542;47.928;2.138;2023-04-06T13:01:00;2.08;;;1.00;;
44824;SDS011;30542;47.928;2.138;2023-04-06T13:06:05;3.55;;;1.38;;
44824;SDS011;30542;47.928;2.138;2023-04-06T13:11:06;2.10;;;1.42;;
44824;SDS011;30542;47.928;2.138;2023-04-06T13:16:09;1.50;;;0.93;;
44824;SDS011;30542;47.928;2.138;2023-04-06T13:21:12;2.40;;;1.10;;
44824;SDS011;30542;47.928;2.138;2023-04-06T13:26:15;2.85;;;1.00;;
44824;SDS011;30542;47.928;2.138;2023-04-06T13:31:16;1.90;;;1.00;;
44824;SDS011;30542;47.928;2.138;2023-04-06T13:36:16;1.50;;;0.70;;
44824;SDS011;30542;47.928;2.138;2023-04-06T13:41:18;2.50;;;0.93;;
44824;SDS011;30542;47.928;2.138;2023-04-06T13:46:22;3.45;;;1.35;;
44824;SDS011;30542;47.928;2.138;2023-04-06T13:51:24;5.00;;;1.30;;
44824;SDS011;30542;47.928;2.138;2023-04-06T13:56:24;1.97;;;1.00;;
44824;SDS011;30542;47.928;2.138;2023-04-06T14:01:24;1.33;;;0.90;;
44824;SDS011;30542;47.928;2.138;2023-04-06T14:06:26;2.63;;;1.45;;
44824;SDS011;30542;47.928;2.138;2023-04-06T14:11:26;4.00;;;2.93;;
44824;SDS011;30542;47.928;2.138;2023-04-06T14:16:27;5.75;;;4.82;;
44824;SDS011;30542;47.928;2.138;2023-04-06T14:21:27;11.80;;;6.00;;
44824;SDS011;30542;47.928;2.138;2023-04-06T14:26:28;11.43;;;8.25;;
44824;SDS011;30542;47.928;2.138;2023-04-06T14:31:28;7.80;;;7.00;;
44824;SDS011;30542;47.928;2.138;2023-04-06T14:36:31;8.10;;;6.83;;
44824;SDS011;30542;47.928;2.138;2023-04-06T14:41:36;7.30;;;6.55;;
44824;SDS011;30542;47.928;2.138;2023-04-06T14:46:36;7.07;;;5.70;;
44824;SDS011;30542;47.928;2.138;2023-04-06T14:51:37;7.50;;;5.10;;
44824;SDS011;30542;47.928;2.138;2023-04-06T14:56:37;5.80;;;5.10;;
44824;SDS011;30542;47.928;2.138;2023-04-06T15:01:38;6.95;;;5.15;;
44824;SDS011;30542;47.928;2.138;2023-04-06T15:06:38;5.83;;;4.43;;
44824;SDS011;30542;47.928;2.138;2023-04-06T15:11:39;5.13;;;4.33;;
44824;SDS011;30542;47.928;2.138;2023-04-06T15:16:39;4.65;;;4.18;;
44824;SDS011;30542;47.928;2.138;2023-04-06T15:21:40;6.90;;;4.50;;
44824;SDS011;30542;47.928;2.138;2023-04-06T15:26:40;5.28;;;3.53;;
44824;SDS011;30542;47.928;2.138;2023-04-06T15:31:41;5.95;;;3.78;;
44824;SDS011;30542;47.928;2.138;2023-04-06T15:36:41;6.10;;;3.13;;
44824;SDS011;30542;47.928;2.138;2023-04-06T15:41:43;4.47;;;2.95;;
44824;SDS011;30542;47.928;2.138;2023-04-06T15:46:43;3.47;;;2.77;;
44824;SDS011;30542;47.928;2.138;2023-04-06T15:51:46;3.97;;;2.88;;
44824;SDS011;30542;47.928;2.138;2023-04-06T15:56:47;5.45;;;3.28;;
44824;SDS011;30542;47.928;2.138;2023-04-06T16:01:48;4.85;;;3.00;;
44824;SDS011;30542;47.928;2.138;2023-04-06T16:06:48;4.00;;;2.30;;
44824;SDS011;30542;47.928;2.138;2023-04-06T16:11:49;6.25;;;2.45;;
44824;SDS011;30542;47.928;2.138;2023-04-06T16:16:49;4.80;;;2.57;;
44824;SDS011;30542;47.928;2.138;2023-04-06T16:21:50;5.00;;;2.42;;
44824;SDS011;30542;47.928;2.138;2023-04-06T16:26:51;5.47;;;2.50;;
44824;SDS011;30542;47.928;2.138;2023-04-06T16:31:51;6.60;;;2.73;;
44824;SDS011;30542;47.928;2.138;2023-04-06T16:36:51;4.33;;;2.50;;
44824;SDS011;30542;47.928;2.138;2023-04-06T16:41:52;4.60;;;2.37;;
44824;SDS011;30542;47.928;2.138;2023-04-06T16:46:52;3.57;;;2.03;;
44824;SDS011;30542;47.928;2.138;2023-04-06T16:51:52;4.33;;;2.13;;
44824;SDS011;30542;47.928;2.138;2023-04-06T16:56:53;2.90;;;1.83;;
44824;SDS011;30542;47.928;2.138;2023-04-06T17:01:53;3.03;;;1.67;;
44824;SDS011;30542;47.928;2.138;2023-04-06T17:06:53;4.05;;;1.98;;
44824;SDS011;30542;47.928;2.138;2023-04-06T17:11:54;2.27;;;1.57;;
44824;SDS011;30542;47.928;2.138;2023-04-06T17:16:55;3.85;;;1.98;;
44824;SDS011;30542;47.928;2.138;2023-04-06T17:21:56;3.70;;;1.77;;
44824;SDS011;30542;47.928;2.138;2023-04-06T17:26:56;5.03;;;1.57;;
44824;SDS011;30542;47.928;2.138;2023-04-06T17:31:56;3.37;;;1.87;;
44824;SDS011;30542;47.928;2.138;2023-04-06T17:36:57;3.73;;;1.73;;
44824;SDS011;30542;47.928;2.138;2023-04-06T17:41:57;3.73;;;1.87;;
44824;SDS011;30542;47.928;2.138;2023-04-06T17:46:58;3.10;;;1.63;;
44824;SDS011;30542;47.928;2.138;2023-04-06T17:51:59;1.58;;;1.20;;
44824;SDS011;30542;47.928;2.138;2023-04-06T17:57:00;2.72;;;1.52;;
44824;SDS011;30542;47.928;2.138;2023-04-06T18:02:01;2.90;;;1.42;;
44824;SDS011;30542;47.928;2.138;2023-04-06T18:07:03;3.60;;;1.60;;
44824;SDS011;30542;47.928;2.138;2023-04-06T18:12:04;3.50;;;2.00;;
44824;SDS011;30542;47.928;2.138;2023-04-06T18:17:04;2.33;;;1.25;;
44824;SDS011;30542;47.928;2.138;2023-04-06T18:22:05;4.90;;;1.63;;
44824;SDS011;30542;47.928;2.138;2023-04-06T18:27:05;2.10;;;1.67;;
44824;SDS011;30542;47.928;2.138;2023-04-06T18:32:06;3.70;;;2.17;;
44824;SDS011;30542;47.928;2.138;2023-04-06T18:37:06;4.13;;;1.65;;
44824;SDS011;30542;47.928;2.138;2023-04-06T18:42:06;4.03;;;2.00;;
44824;SDS011;30542;47.928;2.138;2023-04-06T18:47:07;4.60;;;2.07;;
44824;SDS011;30542;47.928;2.138;2023-04-06T18:52:07;3.42;;;1.67;;
44824;SDS011;30542;47.928;2.138;2023-04-06T18:57:07;3.20;;;1.63;;
44824;SDS011;30542;47.928;2.138;2023-04-06T19:02:08;2.67;;;1.40;;
44824;SDS011;30542;47.928;2.138;2023-04-06T19:07:12;3.83;;;1.77;;
44824;SDS011;30542;47.928;2.138;2023-04-06T19:12:13;3.90;;;1.70;;
44824;SDS011;30542;47.928;2.138;2023-04-06T19:17:13;2.80;;;1.67;;
44824;SDS011;30542;47.928;2.138;2023-04-06T19:22:13;4.03;;;1.70;;
44824;SDS011;30542;47.928;2.138;2023-04-06T19:27:15;4.38;;;1.65;;
44824;SDS011;30542;47.928;2.138;2023-04-06T19:32:17;4.25;;;1.63;;
44824;SDS011;30542;47.928;2.138;2023-04-06T19:37:17;4.10;;;1.80;;
44824;SDS011;30542;47.928;2.138;2023-04-06T19:42:17;1.97;;;1.37;;
44824;SDS011;30542;47.928;2.138;2023-04-06T19:47:21;1.27;;;1.08;;
44824;SDS011;30542;47.928;2.138;2023-04-06T19:52:22;2.53;;;1.20;;
44824;SDS011;30542;47.928;2.138;2023-04-06T19:57:22;1.88;;;1.42;;
44824;SDS011;30542;47.928;2.138;2023-04-06T20:02:24;2.08;;;1.60;;
44824;SDS011;30542;47.928;2.138;2023-04-06T20:07:25;3.37;;;1.00;;
44824;SDS011;30542;47.928;2.138;2023-04-06T20:12:25;3.20;;;1.30;;
44824;SDS011;30542;47.928;2.138;2023-04-06T20:17:25;1.60;;;1.10;;
44824;SDS011;30542;47.928;2.138;2023-04-06T20:22:26;1.60;;;1.08;;
44824;SDS011;30542;47.928;2.138;2023-04-06T20:27:26;2.10;;;1.20;;
44824;SDS011;30542;47.928;2.138;2023-04-06T20:32:26;3.60;;;1.47;;
44824;SDS011;30542;47.928;2.138;2023-04-06T20:37:27;3.87;;;1.27;;
44824;SDS011;30542;47.928;2.138;2023-04-06T20:42:27;2.85;;;1.13;;
44824;SDS011;30542;47.928;2.138;2023-04-06T20:47:27;2.00;;;1.37;;
44824;SDS011;30542;47.928;2.138;2023-04-06T20:52:28;1.67;;;1.20;;
44824;SDS011;30542;47.928;2.138;2023-04-06T20:57:28;2.53;;;1.30;;
44824;SDS011;30542;47.928;2.138;2023-04-06T21:02:28;1.50;;;1.17;;
44824;SDS011;30542;47.928;2.138;2023-04-06T21:07:29;1.23;;;1.13;;
44824;SDS011;30542;47.928;2.138;2023-04-06T21:12:29;1.60;;;1.00;;
44824;SDS011;30542;47.928;2.138;2023-04-06T21:17:30;1.30;;;0.95;;
44824;SDS011;30542;47.928;2.138;2023-04-06T21:22:30;1.88;;;1.08;;
44824;SDS011;30542;47.928;2.138;2023-04-06T21:27:31;1.98;;;0.98;;
44824;SDS011;30542;47.928;2.138;2023-04-06T21:32:31;1.13;;;1.03;;
44824;SDS011;30542;47.928;2.138;2023-04-06T21:37:32;1.73;;;0.90;;
44824;SDS011;30542;47.928;2.138;2023-04-06T21:42:32;1.53;;;0.87;;
44824;SDS011;30542;47.928;2.138;2023-04-06T21:47:33;1.23;;;1.13;;
44824;SDS011;30542;47.928;2.138;2023-04-06T21:52:34;1.13;;;0.82;;
44824;SDS011;30542;47.928;2.138;2023-04-06T21:57:34;1.60;;;0.93;;
44824;SDS011;30542;47.928;2.138;2023-04-06T22:02:35;1.10;;;1.00;;
44824;SDS011;30542;47.928;2.138;2023-04-06T22:07:36;1.17;;;0.93;;
44824;SDS011;30542;47.928;2.138;2023-04-06T22:12:36;1.33;;;1.00;;
44824;SDS011;30542;47.928;2.138;2023-04-06T22:17:36;1.10;;;0.70;;
44824;SDS011;30542;47.928;2.138;2023-04-06T22:22:37;0.95;;;0.80;;
44824;SDS011;30542;47.928;2.138;2023-04-06T22:27:38;0.93;;;0.80;;
44824;SDS011;30542;47.928;2.138;2023-04-06T22:32:38;0.80;;;0.77;;
44824;SDS011;30542;47.928;2.138;2023-04-06T22:37:42;1.80;;;0.80;;
44824;SDS011;30542;47.928;2.138;2023-04-06T22:42:42;1.55;;;1.02;;
44824;SDS011;30542;47.928;2.138;2023-04-06T22:47:44;0.97;;;0.80;;
44824;SDS011;30542;47.928;2.138;2023-04-06T22:52:45;1.05;;;0.95;;
44824;SDS011;30542;47.928;2.138;2023-04-06T22:57:45;0.73;;;0.70;;
44824;SDS011;30542;47.928;2.138;2023-04-06T23:02:46;1.23;;;1.00;;
44824;SDS011;30542;47.928;2.138;2023-04-06T23:07:47;1.17;;;0.98;;
44824;SDS011;30542;47.928;2.138;2023-04-06T23:12:47;1.37;;;0.77;;
44824;SDS011;30542;47.928;2.138;2023-04-06T23:17:48;1.23;;;0.70;;
44824;SDS011;30542;47.928;2.138;2023-04-06T23:22:48;1.10;;;0.70;;
44824;SDS011;30542;47.928;2.138;2023-04-06T23:27:48;1.15;;;0.90;;
44824;SDS011;30542;47.928;2.138;2023-04-06T23:32:48;0.93;;;0.73;;
44824;SDS011;30542;47.928;2.138;2023-04-06T23:37:49;1.93;;;1.30;;
44824;SDS011;30542;47.928;2.138;2023-04-06T23:42:49;2.40;;;0.93;;
44824;SDS011;30542;47.928;2.138;2023-04-06T23:47:50;1.60;;;1.08;;
44824;SDS011;30542;47.928;2.138;2023-04-06T23:52:50;1.27;;;1.00;;
44824;SDS011;30542;47.928;2.138;2023-04-06T23:57:50;0.80;;;0.70;;
